Time;durP1;ratioP1;P1;durP2;ratioP2;P2;SDS_P1;SDS_P2;PMS_P1;PMS_P2;Temp;Humidity;BMP_temperature;BMP_pressure;BME280_temperature;BME280_humidity;BME280_pressure;Samples;Min_cycle;Max_cycle;Signal;HPM_P1;HPM_P2
2022/01/17 00:00:26;;;;;;;22.83;6.05;;;;;;;;;;5045228;28;20035;-54
2022/01/17 00:02:52;;;;;;;24.23;6.38;;;;;;;;;;5075654;28;20045;-53
2022/01/17 00:05:18;;;;;;;23.35;6.00;;;;;;;;;;5043434;28;20140;-55
2022/01/17 00:07:44;;;;;;;23.92;6.80;;;;;;;;;;5043219;28;20025;-53
2022/01/17 00:10:10;;;;;;;24.75;6.22;;;;;;;;;;5041920;28;20183;-54
2022/01/17 00:12:43;;;;;;;27.08;5.57;;;;;;;;;;5044918;28;20037;-54
2022/01/17 00:15:21;;;;;;;17.23;5.50;;;;;;;;;;5038719;28;20526;-54
2022/01/17 00:17:51;;;;;;;14.15;4.60;;;;;;;;;;5040139;28;21689;-54
2022/01/17 00:20:25;;;;;;;15.82;4.63;;;;;;;;;;5040644;28;20086;-55
2022/01/17 00:22:51;;;;;;;14.23;4.78;;;;;;;;;;5044091;28;20040;-54
2022/01/17 00:25:17;;;;;;;15.75;4.75;;;;;;;;;;5046035;28;20052;-53
2022/01/17 00:27:43;;;;;;;17.17;4.80;;;;;;;;;;5043854;28;20048;-54
2022/01/17 00:30:09;;;;;;;14.95;4.07;;;;;;;;;;5043076;28;20041;-53
2022/01/17 00:32:35;;;;;;;20.45;4.35;;;;;;;;;;5041334;28;20079;-54
2022/01/17 00:35:01;;;;;;;19.25;4.57;;;;;;;;;;5046216;28;20033;-51
2022/01/17 00:37:26;;;;;;;14.75;3.83;;;;;;;;;;5040077;28;20448;-54
2022/01/17 00:39:52;;;;;;;20.67;4.20;;;;;;;;;;5046678;28;20479;-54
2022/01/17 00:42:18;;;;;;;11.60;3.85;;;;;;;;;;5051914;28;20059;-52
2022/01/17 00:44:44;;;;;;;14.00;3.83;;;;;;;;;;5046172;28;20076;-51
2022/01/17 00:47:11;;;;;;;22.60;3.85;;;;;;;;;;5048678;28;20135;-54
2022/01/17 00:49:36;;;;;;;14.70;3.70;;;;;;;;;;5046384;28;20151;-52
2022/01/17 00:52:03;;;;;;;13.32;3.05;;;;;;;;;;5050875;28;20139;-51
2022/01/17 00:54:31;;;;;;;13.10;3.80;;;;;;;;;;5044060;28;20041;-51
2022/01/17 00:56:57;;;;;;;16.70;4.20;;;;;;;;;;5045695;28;20036;-54
2022/01/17 00:59:22;;;;;;;27.25;4.28;;;;;;;;;;5043498;28;20043;-51
2022/01/17 01:01:48;;;;;;;22.50;4.07;;;;;;;;;;5040003;28;20188;-53
2022/01/17 01:04:13;;;;;;;14.70;3.63;;;;;;;;;;5039921;28;20775;-50
2022/01/17 01:06:39;;;;;;;12.02;3.42;;;;;;;;;;5042848;28;20056;-55
2022/01/17 01:09:05;;;;;;;18.02;4.55;;;;;;;;;;5042732;28;20435;-54
2022/01/17 01:11:31;;;;;;;12.30;4.07;;;;;;;;;;5042419;28;20059;-54
2022/01/17 01:13:56;;;;;;;18.95;5.47;;;;;;;;;;5047826;28;20507;-53
2022/01/17 01:16:30;;;;;;;21.13;4.28;;;;;;;;;;5047188;28;20148;-52
2022/01/17 01:27:40;;;;;;;26.83;6.90;;;;;;;;;;5047637;28;20272;-53
2022/01/17 01:29:55;;;;;;;19.23;4.07;;;;;;;;;;5043082;28;20059;-52
2022/01/17 01:32:25;;;;;;;25.52;4.72;;;;;;;;;;5043083;28;20558;-52
2022/01/17 01:34:53;;;;;;;24.15;4.18;;;;;;;;;;5041403;28;20132;-53
2022/01/17 01:37:19;;;;;;;17.63;3.42;;;;;;;;;;5046330;28;20094;-54
2022/01/17 01:39:48;;;;;;;15.05;4.00;;;;;;;;;;5043544;28;20037;-53
2022/01/17 01:42:17;;;;;;;15.98;3.70;;;;;;;;;;5037523;28;20048;-53
2022/01/17 01:44:43;;;;;;;13.20;3.17;;;;;;;;;;5045389;28;20455;-53
2022/01/17 01:47:09;;;;;;;15.77;3.22;;;;;;;;;;5042327;28;20040;-54
2022/01/17 01:49:34;;;;;;;24.88;4.50;;;;;;;;;;5036467;28;20477;-53
2022/01/17 01:52:00;;;;;;;16.85;3.53;;;;;;;;;;5041577;28;20033;-51
2022/01/17 01:54:26;;;;;;;16.27;3.58;;;;;;;;;;5040990;28;20095;-53
2022/01/17 01:56:51;;;;;;;14.38;3.10;;;;;;;;;;5042877;28;20151;-53
2022/01/17 01:59:22;;;;;;;13.77;3.45;;;;;;;;;;5042239;28;20057;-54
2022/01/17 02:01:49;;;;;;;8.20;2.88;;;;;;;;;;5038453;28;20083;-51
2022/01/17 02:04:15;;;;;;;8.27;2.85;;;;;;;;;;5040709;28;20029;-51
2022/01/17 02:06:41;;;;;;;14.10;2.55;;;;;;;;;;5042604;28;20029;-51
2022/01/17 02:09:07;;;;;;;13.32;2.60;;;;;;;;;;5038363;28;20032;-54
2022/01/17 02:11:34;;;;;;;16.58;3.10;;;;;;;;;;5040536;28;20029;-52
2022/01/17 02:14:00;;;;;;;9.70;2.50;;;;;;;;;;5046119;28;20032;-53
2022/01/17 02:16:26;;;;;;;10.93;2.58;;;;;;;;;;5071567;28;20711;-53
2022/01/17 02:18:51;;;;;;;8.75;2.55;;;;;;;;;;5040594;28;20350;-53
2022/01/17 02:21:46;;;;;;;7.25;2.25;;;;;;;;;;5045501;28;20119;-55
2022/01/17 02:24:06;;;;;;;8.02;2.70;;;;;;;;;;5046557;28;20029;-53
2022/01/17 02:26:31;;;;;;;6.72;2.10;;;;;;;;;;5047471;28;20051;-53
2022/01/17 02:28:58;;;;;;;14.45;2.17;;;;;;;;;;5041836;28;20090;-52
2022/01/17 02:31:25;;;;;;;17.33;2.83;;;;;;;;;;5043631;28;20029;-51
2022/01/17 02:33:52;;;;;;;14.23;2.47;;;;;;;;;;5041958;28;20036;-52
2022/01/17 02:36:18;;;;;;;11.27;2.42;;;;;;;;;;5042522;28;20036;-53
2022/01/17 02:38:43;;;;;;;12.15;2.75;;;;;;;;;;5044164;28;20451;-54
2022/01/17 02:41:11;;;;;;;9.57;2.08;;;;;;;;;;5059206;28;20040;-53
2022/01/17 02:43:37;;;;;;;11.90;2.40;;;;;;;;;;5042444;28;20032;-53
2022/01/17 02:48:31;;;;;;;8.50;2.60;;;;;;;;;;5041000;28;20041;-53
2022/01/17 02:50:58;;;;;;;15.48;2.40;;;;;;;;;;5039024;28;20067;-53
2022/01/17 02:53:25;;;;;;;15.90;2.70;;;;;;;;;;5041849;28;20358;-53
2022/01/17 02:55:54;;;;;;;9.70;2.38;;;;;;;;;;5043367;28;20036;-53
2022/01/17 02:58:22;;;;;;;15.43;2.90;;;;;;;;;;5041497;28;20078;-53
2022/01/17 03:00:49;;;;;;;10.70;2.30;;;;;;;;;;5041703;28;20028;-53
2022/01/17 03:03:19;;;;;;;17.75;2.78;;;;;;;;;;5044732;28;20055;-53
2022/01/17 03:05:47;;;;;;;13.90;2.42;;;;;;;;;;5039639;28;20041;-51
2022/01/17 03:08:13;;;;;;;15.05;2.88;;;;;;;;;;5042768;28;20072;-50
2022/01/17 03:10:43;;;;;;;6.30;1.75;;;;;;;;;;5035787;28;20522;-52
2022/01/17 03:13:12;;;;;;;15.48;2.50;;;;;;;;;;5033312;28;20143;-53
2022/01/17 03:15:39;;;;;;;10.63;2.67;;;;;;;;;;5048475;28;20095;-53
2022/01/17 03:18:06;;;;;;;16.05;2.70;;;;;;;;;;5044723;28;20044;-53
2022/01/17 03:20:34;;;;;;;18.35;2.53;;;;;;;;;;5071291;28;20538;-50
2022/01/17 03:23:01;;;;;;;8.00;2.20;;;;;;;;;;5036476;28;20037;-52
2022/01/17 03:25:27;;;;;;;13.38;2.40;;;;;;;;;;5046240;28;20500;-51
2022/01/17 03:27:53;;;;;;;12.45;3.80;;;;;;;;;;5046381;28;20491;-53
2022/01/17 03:30:18;;;;;;;14.23;2.47;;;;;;;;;;5041882;28;20540;-53
2022/01/17 03:32:44;;;;;;;13.93;2.60;;;;;;;;;;5042690;28;20108;-54
2022/01/17 03:35:10;;;;;;;14.32;2.67;;;;;;;;;;5043976;28;20044;-52
2022/01/17 03:37:35;;;;;;;9.95;2.25;;;;;;;;;;5040040;28;20515;-52
2022/01/17 03:40:01;;;;;;;12.15;3.00;;;;;;;;;;5045653;28;20044;-53
2022/01/17 03:42:27;;;;;;;8.57;2.72;;;;;;;;;;5043676;28;20033;-53
2022/01/17 03:44:52;;;;;;;16.77;2.97;;;;;;;;;;5042980;28;20040;-54
2022/01/17 03:47:18;;;;;;;16.08;3.25;;;;;;;;;;5044941;28;20029;-54
2022/01/17 03:49:44;;;;;;;12.38;2.95;;;;;;;;;;5039800;28;20124;-53
2022/01/17 03:52:09;;;;;;;17.05;2.65;;;;;;;;;;5037031;28;20040;-54
2022/01/17 03:54:35;;;;;;;12.20;2.42;;;;;;;;;;5045104;28;20088;-53
2022/01/17 03:57:01;;;;;;;10.25;2.53;;;;;;;;;;5043126;28;20401;-52
2022/01/17 03:59:27;;;;;;;8.27;2.13;;;;;;;;;;5044570;28;20076;-54
2022/01/17 04:01:54;;;;;;;24.23;3.47;;;;;;;;;;5043418;28;20043;-53
2022/01/17 04:04:19;;;;;;;7.43;2.75;;;;;;;;;;5036695;28;20368;-52
2022/01/17 04:06:45;;;;;;;11.82;2.67;;;;;;;;;;5048405;28;20426;-53
2022/01/17 04:09:11;;;;;;;8.13;2.15;;;;;;;;;;5039099;28;20037;-50
2022/01/17 04:11:38;;;;;;;13.32;2.00;;;;;;;;;;5040366;28;20033;-53
2022/01/17 04:14:06;;;;;;;11.93;2.22;;;;;;;;;;5074171;28;20033;-53
2022/01/17 04:16:31;;;;;;;14.30;2.22;;;;;;;;;;5046534;28;20034;-54
2022/01/17 04:18:57;;;;;;;10.73;1.80;;;;;;;;;;5044366;28;20029;-53
2022/01/17 04:21:23;;;;;;;10.15;2.20;;;;;;;;;;5044121;28;20175;-54
2022/01/17 04:23:48;;;;;;;16.02;1.83;;;;;;;;;;5042874;28;20037;-51
2022/01/17 04:26:14;;;;;;;14.63;2.25;;;;;;;;;;5046060;28;20090;-54
2022/01/17 04:28:40;;;;;;;7.82;2.10;;;;;;;;;;5042955;28;20349;-53
2022/01/17 04:31:06;;;;;;;6.38;1.75;;;;;;;;;;5048696;28;20041;-51
2022/01/17 04:33:31;;;;;;;7.80;1.88;;;;;;;;;;5045917;28;20126;-52
2022/01/17 04:35:57;;;;;;;9.43;2.15;;;;;;;;;;5049351;28;20075;-50
2022/01/17 04:38:23;;;;;;;11.98;2.10;;;;;;;;;;5041048;28;20025;-53
2022/01/17 04:41:01;;;;;;;11.57;2.95;;;;;;;;;;5044088;28;20439;-54
2022/01/17 04:45:07;;;;;;;7.65;1.90;;;;;;;;;;5047166;28;20036;-53
2022/01/17 04:46:18;;;;;;;18.33;3.08;;;;;;;;;;5037886;28;20358;-53
2022/01/17 04:48:43;;;;;;;9.43;2.80;;;;;;;;;;5042303;28;20397;-54
2022/01/17 04:51:09;;;;;;;9.95;3.60;;;;;;;;;;5048861;28;20511;-55
2022/01/17 04:53:34;;;;;;;9.63;3.60;;;;;;;;;;5046150;28;20116;-53
2022/01/17 04:56:00;;;;;;;12.48;3.60;;;;;;;;;;5050721;28;20033;-54
2022/01/17 04:58:26;;;;;;;14.27;3.63;;;;;;;;;;5047059;28;20028;-51
2022/01/17 05:00:52;;;;;;;16.08;3.30;;;;;;;;;;5041212;28;20625;-54
2022/01/17 05:03:23;;;;;;;17.70;4.18;;;;;;;;;;5052247;28;20024;-54
2022/01/17 05:05:49;;;;;;;12.23;4.63;;;;;;;;;;5044879;28;20112;-54
2022/01/17 05:08:16;;;;;;;21.23;5.03;;;;;;;;;;5041580;28;20042;-53
2022/01/17 05:10:45;;;;;;;17.05;6.47;;;;;;;;;;5038072;28;20028;-54
2022/01/17 05:13:16;;;;;;;20.70;5.47;;;;;;;;;;5048035;28;20082;-53
2022/01/17 05:15:48;;;;;;;19.35;6.10;;;;;;;;;;5043677;28;20511;-52
2022/01/17 05:19:47;;;;;;;19.20;7.32;;;;;;;;;;5045677;28;20037;-55
2022/01/17 05:20:59;;;;;;;45.17;12.93;;;;;;;;;;5043089;28;20047;-51
2022/01/17 05:23:24;;;;;;;38.78;11.70;;;;;;;;;;5037289;28;20025;-51
2022/01/17 05:25:50;;;;;;;56.75;13.27;;;;;;;;;;5040701;28;20041;-53
2022/01/17 05:28:15;;;;;;;23.92;8.88;;;;;;;;;;5046797;28;20039;-52
2022/01/17 05:30:41;;;;;;;18.75;7.80;;;;;;;;;;5049805;28;20525;-53
2022/01/17 05:33:07;;;;;;;21.73;7.65;;;;;;;;;;5039990;28;20028;-54
2022/01/17 05:35:32;;;;;;;15.65;6.57;;;;;;;;;;5047083;28;20036;-50
2022/01/17 05:37:58;;;;;;;27.40;7.45;;;;;;;;;;5048409;28;20111;-52
2022/01/17 05:40:24;;;;;;;20.77;6.85;;;;;;;;;;5077353;28;20029;-54
2022/01/17 05:42:50;;;;;;;15.05;6.20;;;;;;;;;;5044611;28;20041;-54
2022/01/17 05:45:16;;;;;;;29.27;7.15;;;;;;;;;;5047423;28;20098;-53
2022/01/17 05:47:43;;;;;;;23.92;7.97;;;;;;;;;;5041870;28;20029;-53
2022/01/17 05:50:09;;;;;;;22.63;8.60;;;;;;;;;;5048709;28;20041;-54
2022/01/17 05:52:35;;;;;;;22.90;8.45;;;;;;;;;;5046552;28;20400;-54
2022/01/17 05:55:02;;;;;;;23.65;10.23;;;;;;;;;;5044555;28;20042;-53
2022/01/17 05:57:28;;;;;;;22.60;9.40;;;;;;;;;;5041479;28;20020;-54
2022/01/17 05:59:54;;;;;;;24.30;7.93;;;;;;;;;;5039809;28;20024;-54
2022/01/17 06:02:20;;;;;;;18.42;8.00;;;;;;;;;;5046791;28;20040;-53
2022/01/17 06:04:45;;;;;;;39.90;11.07;;;;;;;;;;5041920;28;20040;-53
2022/01/17 06:07:11;;;;;;;33.72;8.30;;;;;;;;;;5045132;28;20041;-54
2022/01/17 06:09:36;;;;;;;31.75;9.07;;;;;;;;;;5041862;28;23371;-53
2022/01/17 06:12:03;;;;;;;21.08;7.95;;;;;;;;;;5038800;28;20068;-54
2022/01/17 06:14:30;;;;;;;25.00;7.32;;;;;;;;;;5043884;28;20029;-54
2022/01/17 06:16:55;;;;;;;24.90;7.47;;;;;;;;;;5045955;28;20033;-51
2022/01/17 06:19:21;;;;;;;24.70;6.05;;;;;;;;;;5043168;28;20462;-54
2022/01/17 06:21:47;;;;;;;13.10;5.70;;;;;;;;;;5042960;28;20028;-54
2022/01/17 06:24:12;;;;;;;27.05;6.18;;;;;;;;;;5038444;28;20055;-54
2022/01/17 06:26:39;;;;;;;23.85;6.38;;;;;;;;;;5042473;28;20085;-53
2022/01/17 06:29:07;;;;;;;22.98;5.53;;;;;;;;;;5042234;28;20504;-53
2022/01/17 06:31:34;;;;;;;17.05;5.35;;;;;;;;;;5051637;28;20051;-54
2022/01/17 06:33:59;;;;;;;20.23;5.50;;;;;;;;;;5040556;28;20363;-52
2022/01/17 06:36:25;;;;;;;18.50;5.47;;;;;;;;;;5043076;28;20037;-53
2022/01/17 06:38:50;;;;;;;34.83;7.30;;;;;;;;;;5043679;28;20041;-54
2022/01/17 06:41:17;;;;;;;20.80;6.63;;;;;;;;;;5043968;28;20057;-54
2022/01/17 06:43:44;;;;;;;29.58;6.20;;;;;;;;;;5044854;28;20057;-54
2022/01/17 06:46:10;;;;;;;27.88;6.82;;;;;;;;;;5037932;28;20053;-53
2022/01/17 06:48:36;;;;;;;21.65;5.60;;;;;;;;;;5042090;28;20454;-53
2022/01/17 06:51:02;;;;;;;19.02;6.22;;;;;;;;;;5042661;28;20028;-53
2022/01/17 06:53:29;;;;;;;31.30;7.03;;;;;;;;;;5042178;28;20034;-55
2022/01/17 06:55:56;;;;;;;18.08;6.25;;;;;;;;;;5039438;28;20029;-53
2022/01/17 06:58:22;;;;;;;18.50;7.38;;;;;;;;;;5048247;28;20048;-53
2022/01/17 07:00:48;;;;;;;26.63;8.00;;;;;;;;;;5039400;28;20025;-52
2022/01/17 07:03:14;;;;;;;18.75;7.30;;;;;;;;;;5035791;28;20539;-50
2022/01/17 07:05:40;;;;;;;20.95;6.90;;;;;;;;;;5043598;28;20111;-51
2022/01/17 07:08:05;;;;;;;28.70;8.15;;;;;;;;;;5044735;28;20036;-52
2022/01/17 07:10:31;;;;;;;23.30;6.65;;;;;;;;;;5055326;28;20628;-52
2022/01/17 07:12:57;;;;;;;22.88;7.15;;;;;;;;;;5041169;28;20033;-53
2022/01/17 07:15:22;;;;;;;16.27;5.75;;;;;;;;;;5047072;28;20037;-54
2022/01/17 07:17:48;;;;;;;24.70;7.20;;;;;;;;;;5039352;28;20028;-52
2022/01/17 07:20:13;;;;;;;28.88;7.22;;;;;;;;;;5041026;28;20274;-54
2022/01/17 07:22:39;;;;;;;16.05;5.95;;;;;;;;;;5044538;28;20036;-53
2022/01/17 07:25:06;;;;;;;19.45;7.18;;;;;;;;;;5039635;28;20045;-54
2022/01/17 07:27:32;;;;;;;20.70;6.28;;;;;;;;;;5045415;28;20301;-53
2022/01/17 07:29:57;;;;;;;16.08;6.18;;;;;;;;;;5036572;28;20082;-53
2022/01/17 07:32:23;;;;;;;19.65;7.10;;;;;;;;;;5037378;28;20061;-53
2022/01/17 07:34:49;;;;;;;24.10;8.13;;;;;;;;;;5035710;28;20032;-51
2022/01/17 07:37:15;;;;;;;22.65;8.88;;;;;;;;;;5036121;28;20112;-53
2022/01/17 07:39:40;;;;;;;30.25;8.38;;;;;;;;;;5039182;28;20451;-53
2022/01/17 07:42:06;;;;;;;34.13;15.10;;;;;;;;;;5055819;28;20025;-53
2022/01/17 07:44:33;;;;;;;32.72;14.63;;;;;;;;;;5046226;28;20500;-54
2022/01/17 07:47:01;;;;;;;37.40;14.70;;;;;;;;;;5042182;28;20037;-53
2022/01/17 07:49:28;;;;;;;43.88;17.60;;;;;;;;;;5042761;28;20182;-53
2022/01/17 07:52:00;;;;;;;41.28;18.75;;;;;;;;;;5045902;28;20109;-54
2022/01/17 07:54:31;;;;;;;41.08;19.35;;;;;;;;;;5040482;28;20084;-52
2022/01/17 07:56:59;;;;;;;48.53;19.55;;;;;;;;;;5044580;28;20056;-52
2022/01/17 07:59:25;;;;;;;47.08;19.15;;;;;;;;;;5047763;28;20445;-51
2022/01/17 08:01:51;;;;;;;48.65;18.80;;;;;;;;;;5037961;28;20471;-51
2022/01/17 08:04:16;;;;;;;43.42;17.17;;;;;;;;;;5043281;28;20293;-53
2022/01/17 08:06:42;;;;;;;37.45;17.50;;;;;;;;;;5041428;28;20067;-53
2022/01/17 08:09:16;;;;;;;41.60;18.80;;;;;;;;;;5039949;28;20028;-52
2022/01/17 08:11:42;;;;;;;38.47;18.40;;;;;;;;;;5040580;28;20053;-53
2022/01/17 08:14:08;;;;;;;36.92;17.17;;;;;;;;;;5064183;28;20061;-52
2022/01/17 08:16:34;;;;;;;29.63;15.57;;;;;;;;;;5030883;28;20029;-53
2022/01/17 08:18:59;;;;;;;41.05;18.80;;;;;;;;;;5040194;28;20551;-54
2022/01/17 08:21:25;;;;;;;37.97;19.40;;;;;;;;;;5036677;28;20056;-54
2022/01/17 08:23:54;;;;;;;49.05;20.30;;;;;;;;;;5043351;28;20037;-56
2022/01/17 08:26:20;;;;;;;39.40;20.05;;;;;;;;;;5045068;28;20045;-56
2022/01/17 08:28:46;;;;;;;46.22;20.67;;;;;;;;;;5044922;28;20044;-57
2022/01/17 08:31:12;;;;;;;46.97;20.23;;;;;;;;;;5046890;28;20302;-56
2022/01/17 08:33:37;;;;;;;45.65;20.15;;;;;;;;;;5047024;28;20024;-57
2022/01/17 08:36:04;;;;;;;38.15;18.75;;;;;;;;;;5051336;28;20033;-57
2022/01/17 08:38:30;;;;;;;40.55;19.15;;;;;;;;;;5055528;28;20095;-56
2022/01/17 08:40:57;;;;;;;38.80;19.70;;;;;;;;;;5047230;28;20047;-56
2022/01/17 08:43:24;;;;;;;41.92;19.98;;;;;;;;;;5044624;28;20029;-58
2022/01/17 08:45:50;;;;;;;71.93;26.50;;;;;;;;;;5046859;28;20061;-56
2022/01/17 08:48:16;;;;;;;54.97;23.17;;;;;;;;;;5045199;28;20127;-57
2022/01/17 08:50:43;;;;;;;63.78;23.15;;;;;;;;;;5051773;28;20544;-55
2022/01/17 08:53:10;;;;;;;57.10;22.08;;;;;;;;;;5046691;28;20044;-57
2022/01/17 08:55:36;;;;;;;46.85;20.13;;;;;;;;;;5052295;28;20040;-57
2022/01/17 08:58:03;;;;;;;64.03;24.17;;;;;;;;;;5047685;28;20544;-57
2022/01/17 09:00:31;;;;;;;70.15;22.15;;;;;;;;;;5048942;28;20039;-57
2022/01/17 09:02:58;;;;;;;62.13;21.30;;;;;;;;;;5046864;28;20450;-55
2022/01/17 09:05:24;;;;;;;69.50;21.27;;;;;;;;;;5053403;28;20024;-55
2022/01/17 09:07:49;;;;;;;61.65;20.63;;;;;;;;;;5050296;28;20406;-55
2022/01/17 09:10:16;;;;;;;60.40;20.45;;;;;;;;;;5045840;28;20479;-56
2022/01/17 09:12:41;;;;;;;66.72;20.33;;;;;;;;;;5042361;28;20037;-57
2022/01/17 09:15:07;;;;;;;77.40;19.48;;;;;;;;;;5050281;28;20028;-57
2022/01/17 09:17:33;;;;;;;53.28;19.00;;;;;;;;;;5051496;28;20025;-56
2022/01/17 09:19:59;;;;;;;49.22;18.90;;;;;;;;;;5047659;28;20106;-56
2022/01/17 09:22:24;;;;;;;59.28;20.00;;;;;;;;;;5048015;28;20036;-57
2022/01/17 09:24:51;;;;;;;71.80;19.75;;;;;;;;;;5039161;28;20033;-57
2022/01/17 09:27:17;;;;;;;50.63;19.15;;;;;;;;;;5040287;28;20256;-57
2022/01/17 09:29:43;;;;;;;51.15;16.52;;;;;;;;;;5038288;28;20017;-56
2022/01/17 09:32:09;;;;;;;63.90;18.85;;;;;;;;;;5030771;28;20164;-57
2022/01/17 09:34:34;;;;;;;65.70;19.52;;;;;;;;;;5044064;28;20065;-58
2022/01/17 09:37:00;;;;;;;45.08;17.25;;;;;;;;;;5044906;28;20041;-56
2022/01/17 09:39:26;;;;;;;77.88;18.83;;;;;;;;;;5037160;28;20064;-57
2022/01/17 09:41:51;;;;;;;55.92;16.92;;;;;;;;;;5047584;28;20093;-57
2022/01/17 09:44:17;;;;;;;60.92;18.85;;;;;;;;;;5038764;28;20036;-57
2022/01/17 09:46:46;;;;;;;55.33;17.85;;;;;;;;;;5039170;28;20234;-55
2022/01/17 09:49:23;;;;;;;77.78;19.52;;;;;;;;;;5037936;28;20035;-57
2022/01/17 09:54:27;;;;;;;68.32;19.48;;;;;;;;;;5041912;28;20025;-56
2022/01/17 09:56:58;;;;;;;48.88;17.90;;;;;;;;;;5045367;28;20029;-56
2022/01/17 09:59:24;;;;;;;55.05;18.75;;;;;;;;;;5043009;28;20025;-57
2022/01/17 10:01:51;;;;;;;53.85;18.50;;;;;;;;;;5044235;28;20045;-56
2022/01/17 10:04:17;;;;;;;54.28;19.80;;;;;;;;;;5044463;28;20545;-58
2022/01/17 10:06:54;;;;;;;84.35;22.48;;;;;;;;;;5042803;28;20029;-57
2022/01/17 10:09:22;;;;;;;53.92;19.52;;;;;;;;;;5046175;28;20025;-56
2022/01/17 10:12:11;;;;;;;57.60;20.92;;;;;;;;;;5075608;28;20113;-55
2022/01/17 10:14:44;;;;;;;50.30;20.73;;;;;;;;;;5047639;28;20056;-56
2022/01/17 10:17:13;;;;;;;54.60;19.40;;;;;;;;;;5044932;28;20033;-55
2022/01/17 10:19:40;;;;;;;53.45;20.60;;;;;;;;;;5044674;28;20426;-56
2022/01/17 10:22:15;;;;;;;46.53;20.00;;;;;;;;;;5048452;28;20549;-54
2022/01/17 10:24:54;;;;;;;57.63;20.90;;;;;;;;;;5048138;28;20423;-55
2022/01/17 10:35:49;;;;;;;48.88;17.17;;;;;;;;;;5032271;28;20105;-57
2022/01/17 10:38:23;;;;;;;68.68;18.40;;;;;;;;;;5038685;28;20028;-57
2022/01/17 10:41:00;;;;;;;52.78;18.90;;;;;;;;;;5040425;28;20035;-57
2022/01/17 10:43:38;;;;;;;47.90;18.63;;;;;;;;;;5040967;28;20099;-57
2022/01/17 10:46:09;;;;;;;52.80;19.60;;;;;;;;;;5036602;28;20132;-56
2022/01/17 10:48:37;;;;;;;49.70;19.63;;;;;;;;;;5040404;28;20126;-54
2022/01/17 10:51:05;;;;;;;51.33;18.85;;;;;;;;;;5042729;28;20590;-55
2022/01/17 10:53:31;;;;;;;68.22;19.98;;;;;;;;;;5047985;28;20491;-55
2022/01/17 10:55:59;;;;;;;59.05;18.35;;;;;;;;;;5039961;28;20522;-55
2022/01/17 10:58:28;;;;;;;67.57;17.75;;;;;;;;;;5045685;28;20133;-55
2022/01/17 11:00:57;;;;;;;37.80;15.48;;;;;;;;;;5041582;28;20392;-56
2022/01/17 11:03:27;;;;;;;40.55;17.05;;;;;;;;;;5050219;28;20033;-56
2022/01/17 11:05:55;;;;;;;50.28;18.15;;;;;;;;;;5043270;28;20166;-55
2022/01/17 11:18:35;;;;;;;31.20;12.07;;;;;;;;;;4940689;28;20037;-88
2022/01/17 11:21:33;;;;;;;38.67;11.50;;;;;;;;;;5010956;28;20037;-89
2022/01/17 11:24:13;;;;;;;53.13;14.27;;;;;;;;;;4984918;28;20037;-92
2022/01/17 11:26:48;;;;;;;39.05;10.23;;;;;;;;;;5000398;28;20057;-91
2022/01/17 11:36:59;;;;;;;29.63;8.13;;;;;;;;;;4941661;28;20129;-91
2022/01/17 11:43:52;;;;;;;37.88;8.90;;;;;;;;;;5012036;28;20044;-90
2022/01/17 11:47:02;;;;;;;38.58;9.40;;;;;;;;;;4987482;28;20030;-91
2022/01/17 11:56:10;;;;;;;33.70;9.88;;;;;;;;;;5009282;28;20511;-90
2022/01/17 11:59:45;;;;;;;34.72;9.73;;;;;;;;;;4967934;28;20073;-90
2022/01/17 12:09:56;;;;;;;;;;;;;;;;;;;;;
2022/01/17 12:13:06;;;;;;;;;;;;;;;;;;;;;
2022/01/17 12:19:03;;;;;;;70.28;14.90;;;;;;;;;;4949754;28;20039;-90
2022/01/17 12:22:28;;;;;;;52.45;12.80;;;;;;;;;;4958334;28;20023;-91
2022/01/17 12:28:04;;;;;;;51.08;13.32;;;;;;;;;;4950881;28;20043;-90
2022/01/17 12:31:53;;;;;;;88.30;19.60;;;;;;;;;;4998243;28;20065;-91
2022/01/17 12:34:45;;;;;;;43.30;13.18;;;;;;;;;;4889154;29;20028;-91
2022/01/17 12:40:56;;;;;;;51.05;16.02;;;;;;;;;;4988698;28;20103;-91
2022/01/17 12:53:40;;;;;;;;;;;;;;;;;;;;;
2022/01/17 12:56:51;;;;;;;44.05;14.32;;;;;;;;;;4924168;29;20057;-89
2022/01/17 13:00:31;;;;;;;59.42;13.40;;;;;;;;;;4922888;29;20031;-89
2022/01/17 13:04:06;;;;;;;43.70;12.27;;;;;;;;;;4822662;29;20050;-89
2022/01/17 13:10:13;;;;;;;35.10;9.75;;;;;;;;;;4813743;29;20574;-89
2022/01/17 13:12:57;;;;;;;36.38;8.65;;;;;;;;;;4820134;29;20133;-90
2022/01/17 13:16:02;;;;;;;40.10;6.85;;;;;;;;;;4804057;29;20061;-90
2022/01/17 13:19:07;;;;;;;20.02;4.28;;;;;;;;;;4948419;28;20174;-89
2022/01/17 13:22:06;;;;;;;22.65;4.60;;;;;;;;;;4991205;28;20092;-89
2022/01/17 13:25:34;;;;;;;;;;;;;;;;;;;;;
2022/01/17 13:32:12;;;;;;;32.92;5.60;;;;;;;;;;4964940;28;20046;-89
2022/01/17 13:38:46;;;;;;;;;;;;;;;;;;;;;
2022/01/17 13:41:59;;;;;;;24.80;4.80;;;;;;;;;;4967344;28;20026;-89
2022/01/17 13:44:53;;;;;;;;;;;;;;;;;;;;;
2022/01/17 13:48:06;;;;;;;22.65;5.72;;;;;;;;;;4967697;28;20315;-89
2022/01/17 13:54:02;;;;;;;23.85;5.63;;;;;;;;;;4973066;28;20043;-90
2022/01/17 14:06:49;;;;;;;27.75;5.90;;;;;;;;;;4961442;28;20043;-88
2022/01/17 14:09:45;;;;;;;23.70;5.03;;;;;;;;;;4969256;28;20053;-88
2022/01/17 14:12:36;;;;;;;23.88;5.03;;;;;;;;;;4923629;29;20100;-89
2022/01/17 14:22:05;;;;;;;21.10;4.20;;;;;;;;;;4885934;29;20050;-88
2022/01/17 14:25:40;;;;;;;18.80;4.10;;;;;;;;;;4891498;29;20063;-89
2022/01/17 14:39:02;;;;;;;21.15;3.63;;;;;;;;;;4876723;29;20044;-89
2022/01/17 14:42:28;;;;;;;26.77;5.82;;;;;;;;;;4882598;29;20036;-89
2022/01/17 14:45:45;;;;;;;;;;;;;;;;;;;;;
2022/01/17 14:52:16;;;;;;;19.50;4.68;;;;;;;;;;4930435;29;20091;-92
2022/01/17 15:04:52;;;;;;;29.90;6.00;;;;;;;;;;4970959;28;20101;-91
2022/01/17 15:15:01;;;;;;;35.15;7.57;;;;;;;;;;4983350;28;20034;-91
2022/01/17 15:17:54;;;;;;;26.38;7.28;;;;;;;;;;4999697;28;20039;-91
2022/01/17 15:24:38;;;;;;;35.72;7.60;;;;;;;;;;4940307;28;20125;-90
2022/01/17 15:27:54;;;;;;;22.73;6.72;;;;;;;;;;4909973;29;20043;-91
2022/01/17 15:30:52;;;;;;;;;;;;;;;;;;;;;
2022/01/17 15:34:00;;;;;;;24.35;6.68;;;;;;;;;;4958181;28;20033;-90
2022/01/17 15:40:08;;;;;;;18.73;7.32;;;;;;;;;;4984909;28;20286;-91
2022/01/17 15:43:35;;;;;;;;;;;;;;;;;;;;;
2022/01/17 15:46:04;;;;;;;22.13;7.32;;;;;;;;;;4987466;28;20498;-91
2022/01/17 15:49:03;;;;;;;33.53;7.35;;;;;;;;;;4985818;28;20037;-91
2022/01/17 15:54:54;;;;;;;31.75;7.68;;;;;;;;;;4927836;29;20291;-91
2022/01/17 15:57:44;;;;;;;27.08;7.07;;;;;;;;;;4933376;29;20510;-90
2022/01/17 16:01:06;;;;;;;;;;;;;;;;;;;;;
2022/01/17 16:07:28;;;;;;;29.23;6.90;;;;;;;;;;4931797;29;20733;-90
2022/01/17 16:10:02;;;;;;;33.22;8.20;;;;;;;;;;4917115;29;20067;-92
2022/01/17 16:13:07;;;;;;;25.23;7.47;;;;;;;;;;4919627;29;20082;-91
2022/01/17 16:16:17;;;;;;;;;;;;;;;;;;;;;
2022/01/17 16:22:37;;;;;;;;;;;;;;;;;;;;;
2022/01/17 16:25:31;;;;;;;;;;;;;;;;;;;;;
2022/01/17 16:31:38;;;;;;;;;;;;;;;;;;;;;
2022/01/17 16:34:38;;;;;;;32.38;8.95;;;;;;;;;;4972589;28;20035;-91
2022/01/17 16:37:18;;;;;;;32.90;9.25;;;;;;;;;;4975697;28;20047;-91
2022/01/17 16:40:02;;;;;;;29.60;8.60;;;;;;;;;;4982689;28;20031;-90
2022/01/17 16:43:01;;;;;;;33.00;9.15;;;;;;;;;;4970626;28;20539;-91
2022/01/17 16:45:48;;;;;;;;;;;;;;;;;;;;;
2022/01/17 16:48:51;;;;;;;28.98;9.27;;;;;;;;;;5007726;28;20512;-92
2022/01/17 16:54:28;;;;;;;;;;;;;;;;;;;;;
2022/01/17 16:57:04;;;;;;;39.40;9.45;;;;;;;;;;5011261;28;20022;-91
2022/01/17 17:03:01;;;;;;;49.38;10.10;;;;;;;;;;5003418;28;20080;-91
2022/01/17 17:05:30;;;;;;;39.72;10.02;;;;;;;;;;5018234;28;20038;-92
2022/01/17 17:08:48;;;;;;;37.00;11.52;;;;;;;;;;5015373;28;20040;-91
2022/01/17 17:11:55;;;;;;;32.97;11.02;;;;;;;;;;5013977;28;20034;-92
2022/01/17 17:14:38;;;;;;;36.70;11.88;;;;;;;;;;4990052;28;20652;-91
2022/01/17 17:17:19;;;;;;;33.85;12.40;;;;;;;;;;4984494;28;20042;-92
2022/01/17 17:19:51;;;;;;;37.30;14.77;;;;;;;;;;4988769;28;20077;-92
2022/01/17 17:22:54;;;;;;;50.47;15.35;;;;;;;;;;4973718;28;20050;-91
2022/01/17 17:28:38;;;;;;;52.35;18.48;;;;;;;;;;4974773;28;20041;-93
2022/01/17 17:31:32;;;;;;;;;;;;;;;;;;;;;
2022/01/17 17:34:10;;;;;;;55.20;18.73;;;;;;;;;;4986315;28;20274;-92
2022/01/17 17:37:08;;;;;;;52.13;18.83;;;;;;;;;;4985893;28;20034;-91
2022/01/17 17:40:26;;;;;;;57.03;20.05;;;;;;;;;;4954704;28;20095;-91
2022/01/17 17:43:19;;;;;;;61.00;20.33;;;;;;;;;;4984697;28;20042;-91
2022/01/17 17:46:24;;;;;;;58.30;19.63;;;;;;;;;;4880880;29;20043;-91
2022/01/17 17:49:01;;;;;;;54.30;19.13;;;;;;;;;;4975766;28;20047;-91
2022/01/17 17:51:45;;;;;;;64.53;21.75;;;;;;;;;;4985866;28;20043;-91
2022/01/17 17:54:29;;;;;;;;;;;;;;;;;;;;;
2022/01/17 17:57:01;;;;;;;75.65;21.88;;;;;;;;;;4973012;28;20049;-91
2022/01/17 17:59:43;;;;;;;60.33;21.08;;;;;;;;;;4962282;28;20062;-90
2022/01/17 18:02:33;;;;;;;64.53;22.83;;;;;;;;;;4989739;28;20134;-90
2022/01/17 18:05:48;;;;;;;;;;;;;;;;;;;;;
2022/01/17 18:08:41;;;;;;;61.33;22.30;;;;;;;;;;4965922;28;20039;-90
2022/01/17 18:11:26;;;;;;;71.85;24.83;;;;;;;;;;4961678;28;20153;-89
2022/01/17 18:14:17;;;;;;;65.50;25.08;;;;;;;;;;4986699;28;20086;-90
2022/01/17 18:16:46;;;;;;;73.90;27.83;;;;;;;;;;4957322;28;20113;-91
2022/01/17 18:19:28;;;;;;;92.88;31.48;;;;;;;;;;4968232;28;20449;-89